Time;durP1;ratioP1;P1;durP2;ratioP2;P2;SDS_P1;SDS_P2;PMS_P1;PMS_P2;Temp;Humidity;BMP_temperature;BMP_pressure;BME280_temperature;BME280_humidity;BME280_pressure;Samples;Min_cycle;Max_cycle;Signal;HPM_P1;HPM_P2
2024/03/21 00:02:13;;;;;;;19.95;8.73;;;;;;;;;;5093812;28;20028;-54
2024/03/21 00:04:39;;;;;;;17.30;8.73;;;;;;;;;;5089741;28;20036;-54
2024/03/21 00:07:05;;;;;;;16.00;8.85;;;;;;;;;;5090198;28;20020;-58
2024/03/21 00:09:33;;;;;;;15.23;8.45;;;;;;;;;;5094060;28;20024;-51
2024/03/21 00:11:59;;;;;;;19.17;8.40;;;;;;;;;;5093829;28;20032;-52
2024/03/21 00:14:25;;;;;;;13.40;7.90;;;;;;;;;;5092915;28;20024;-53
2024/03/21 00:16:51;;;;;;;15.23;8.48;;;;;;;;;;5096123;28;20503;-53
2024/03/21 00:19:18;;;;;;;16.38;7.70;;;;;;;;;;5093723;28;20024;-52
2024/03/21 00:21:45;;;;;;;14.60;8.05;;;;;;;;;;5088388;28;20048;-52
2024/03/21 00:24:11;;;;;;;21.17;8.65;;;;;;;;;;5093303;28;20427;-54
2024/03/21 00:26:37;;;;;;;17.10;8.38;;;;;;;;;;5094728;28;20076;-52
2024/03/21 00:29:04;;;;;;;17.17;8.57;;;;;;;;;;5072731;28;20430;-53
2024/03/21 00:31:30;;;;;;;14.25;7.95;;;;;;;;;;5086873;28;20024;-51
2024/03/21 00:33:56;;;;;;;14.95;8.10;;;;;;;;;;5083068;28;20633;-54
2024/03/21 00:36:22;;;;;;;17.45;8.73;;;;;;;;;;5084681;28;20036;-51
2024/03/21 00:38:48;;;;;;;15.93;7.97;;;;;;;;;;5091300;28;20024;-53
2024/03/21 00:41:14;;;;;;;14.27;8.05;;;;;;;;;;5093138;28;20024;-52
2024/03/21 00:43:40;;;;;;;13.88;7.80;;;;;;;;;;5093033;28;20111;-52
2024/03/21 00:46:06;;;;;;;14.93;8.13;;;;;;;;;;5092855;28;20476;-55
2024/03/21 00:48:32;;;;;;;18.67;8.65;;;;;;;;;;5092956;28;20464;-51
2024/03/21 00:50:58;;;;;;;17.83;8.45;;;;;;;;;;5090515;28;20060;-53
2024/03/21 00:53:24;;;;;;;14.60;7.72;;;;;;;;;;5090232;28;20026;-54
2024/03/21 00:55:50;;;;;;;16.05;7.72;;;;;;;;;;5087321;28;20476;-52
2024/03/21 00:58:16;;;;;;;14.27;7.45;;;;;;;;;;5092945;28;20399;-54
2024/03/21 01:00:42;;;;;;;15.00;7.72;;;;;;;;;;5092754;28;20449;-52
2024/03/21 01:03:12;;;;;;;13.75;7.32;;;;;;;;;;5094268;28;20036;-53
2024/03/21 01:05:38;;;;;;;13.25;7.80;;;;;;;;;;5094512;28;20495;-54
2024/03/21 01:08:05;;;;;;;16.05;8.18;;;;;;;;;;5092743;28;20031;-53
2024/03/21 01:10:31;;;;;;;14.50;7.40;;;;;;;;;;5088769;28;20499;-56
2024/03/21 01:12:57;;;;;;;16.75;8.02;;;;;;;;;;5091204;28;20065;-54
2024/03/21 01:15:24;;;;;;;14.48;7.25;;;;;;;;;;5092653;28;20024;-53
2024/03/21 01:17:51;;;;;;;13.23;7.88;;;;;;;;;;5092952;28;20219;-55
2024/03/21 01:20:17;;;;;;;13.85;7.82;;;;;;;;;;5089838;28;20032;-55
2024/03/21 01:22:43;;;;;;;17.02;9.15;;;;;;;;;;5091062;28;20674;-55
2024/03/21 01:25:09;;;;;;;13.73;8.02;;;;;;;;;;5078937;28;20081;-55
2024/03/21 01:27:35;;;;;;;17.58;8.38;;;;;;;;;;5087190;28;20531;-55
2024/03/21 01:30:02;;;;;;;18.63;8.43;;;;;;;;;;5077541;28;20039;-54
2024/03/21 01:32:28;;;;;;;17.05;8.45;;;;;;;;;;5091920;28;20020;-55
2024/03/21 01:34:54;;;;;;;19.67;9.13;;;;;;;;;;5088453;28;20024;-55
2024/03/21 01:37:20;;;;;;;13.55;8.38;;;;;;;;;;5087876;28;20023;-56
2024/03/21 01:39:46;;;;;;;16.02;8.77;;;;;;;;;;5087179;28;20119;-54
2024/03/21 01:42:18;;;;;;;15.70;7.80;;;;;;;;;;5086813;28;20395;-53
2024/03/21 01:44:58;;;;;;;18.67;8.65;;;;;;;;;;5092584;28;20446;-54
2024/03/21 01:47:24;;;;;;;11.85;7.35;;;;;;;;;;5086427;28;20031;-56
2024/03/21 01:49:50;;;;;;;17.13;8.27;;;;;;;;;;5092093;28;20032;-55
2024/03/21 01:52:17;;;;;;;16.63;8.80;;;;;;;;;;5089649;28;20029;-55
2024/03/21 01:54:43;;;;;;;18.95;9.18;;;;;;;;;;5092071;28;20459;-55
2024/03/21 01:57:09;;;;;;;15.25;8.90;;;;;;;;;;5090002;28;20081;-54
2024/03/21 01:59:35;;;;;;;16.00;9.45;;;;;;;;;;5092162;28;20106;-53
2024/03/21 02:02:01;;;;;;;19.75;10.63;;;;;;;;;;5080390;28;20042;-58
2024/03/21 02:04:27;;;;;;;20.00;9.73;;;;;;;;;;5092269;28;20027;-57
2024/03/21 02:06:53;;;;;;;19.38;10.55;;;;;;;;;;5089467;28;20039;-58
2024/03/21 02:09:21;;;;;;;19.30;9.63;;;;;;;;;;5090493;28;20460;-58
2024/03/21 02:11:47;;;;;;;22.98;10.23;;;;;;;;;;5092134;28;20043;-59
2024/03/21 02:14:13;;;;;;;17.15;10.05;;;;;;;;;;5091616;28;20581;-58
2024/03/21 02:16:39;;;;;;;17.60;9.98;;;;;;;;;;5092147;28;20032;-59
2024/03/21 02:19:05;;;;;;;20.85;10.75;;;;;;;;;;5092034;28;20046;-58
2024/03/21 02:24:16;;;;;;;20.17;9.45;;;;;;;;;;5090089;28;20036;-58
2024/03/21 02:26:42;;;;;;;18.75;9.05;;;;;;;;;;5091898;28;20028;-57
2024/03/21 02:29:08;;;;;;;17.42;9.73;;;;;;;;;;5091331;28;20032;-60
2024/03/21 02:31:33;;;;;;;17.52;9.82;;;;;;;;;;5091326;28;20023;-57
2024/03/21 02:33:59;;;;;;;20.35;9.88;;;;;;;;;;5091431;28;20024;-58
2024/03/21 02:36:25;;;;;;;18.25;10.10;;;;;;;;;;5088657;28;20464;-58
2024/03/21 02:38:51;;;;;;;19.60;10.05;;;;;;;;;;5091729;28;20073;-58
2024/03/21 02:41:17;;;;;;;19.50;10.55;;;;;;;;;;5091553;28;20031;-57
2024/03/21 02:43:43;;;;;;;22.92;11.13;;;;;;;;;;5091297;28;20024;-58
2024/03/21 02:46:09;;;;;;;20.95;9.85;;;;;;;;;;5091627;28;20107;-58
2024/03/21 02:48:35;;;;;;;16.27;8.85;;;;;;;;;;5089822;28;20476;-57
2024/03/21 02:51:01;;;;;;;18.52;10.18;;;;;;;;;;5102483;27;20487;-56
2024/03/21 02:53:27;;;;;;;18.40;9.95;;;;;;;;;;5087071;28;20028;-58
2024/03/21 02:55:53;;;;;;;15.35;8.98;;;;;;;;;;5095460;28;20491;-57
2024/03/21 02:58:19;;;;;;;23.35;9.88;;;;;;;;;;5095328;28;20472;-57
2024/03/21 03:00:45;;;;;;;19.45;10.05;;;;;;;;;;5094914;28;20544;-56
2024/03/21 03:03:11;;;;;;;22.35;11.05;;;;;;;;;;5096296;28;20469;-58
2024/03/21 03:05:40;;;;;;;17.38;9.60;;;;;;;;;;5090045;28;20032;-58
2024/03/21 03:08:07;;;;;;;17.70;10.63;;;;;;;;;;5085591;28;20089;-57
2024/03/21 03:10:33;;;;;;;21.42;11.20;;;;;;;;;;5094142;28;20032;-57
2024/03/21 03:12:59;;;;;;;21.25;10.93;;;;;;;;;;5095015;28;20028;-58
2024/03/21 03:15:25;;;;;;;21.50;10.65;;;;;;;;;;5090535;28;20070;-58
2024/03/21 03:17:51;;;;;;;22.92;11.70;;;;;;;;;;5095231;28;20028;-57
2024/03/21 03:20:17;;;;;;;22.38;11.90;;;;;;;;;;5094655;28;20392;-57
2024/03/21 03:22:43;;;;;;;21.20;10.38;;;;;;;;;;5087774;28;20036;-58
2024/03/21 03:25:09;;;;;;;18.67;10.73;;;;;;;;;;5092029;28;20031;-57
2024/03/21 03:27:35;;;;;;;21.92;11.70;;;;;;;;;;5094178;28;20043;-57
2024/03/21 03:30:03;;;;;;;21.63;11.32;;;;;;;;;;5083953;28;20028;-57
2024/03/21 03:32:30;;;;;;;22.13;11.55;;;;;;;;;;5094500;28;20616;-58
2024/03/21 03:37:41;;;;;;;23.75;12.18;;;;;;;;;;5087819;28;20396;-57
2024/03/21 03:40:09;;;;;;;20.15;12.05;;;;;;;;;;5094382;28;20028;-58
2024/03/21 03:42:36;;;;;;;22.83;12.93;;;;;;;;;;5094033;28;20054;-58
2024/03/21 03:45:02;;;;;;;21.65;11.60;;;;;;;;;;5094618;28;20035;-57
2024/03/21 03:47:27;;;;;;;20.58;11.48;;;;;;;;;;5093234;28;20035;-58
2024/03/21 03:49:54;;;;;;;22.67;11.30;;;;;;;;;;5094482;28;20036;-58
2024/03/21 03:52:20;;;;;;;21.60;11.25;;;;;;;;;;5093317;28;20039;-57
2024/03/21 03:54:46;;;;;;;26.08;12.40;;;;;;;;;;5089661;28;20442;-58
2024/03/21 03:57:12;;;;;;;20.83;10.95;;;;;;;;;;5092092;28;20047;-58
2024/03/21 03:59:38;;;;;;;23.02;11.48;;;;;;;;;;5086271;28;20146;-57
2024/03/21 04:02:04;;;;;;;21.52;12.05;;;;;;;;;;5094191;28;20032;-57
2024/03/21 04:04:30;;;;;;;23.88;12.10;;;;;;;;;;5094024;28;20425;-58
2024/03/21 04:06:57;;;;;;;23.10;11.68;;;;;;;;;;5092789;28;20043;-58
2024/03/21 04:09:23;;;;;;;21.60;11.63;;;;;;;;;;5093650;28;20114;-58
2024/03/21 04:11:49;;;;;;;21.38;11.50;;;;;;;;;;5092440;28;20468;-58
2024/03/21 04:14:15;;;;;;;26.15;12.65;;;;;;;;;;5093539;28;20051;-57
2024/03/21 04:16:40;;;;;;;27.30;12.82;;;;;;;;;;5092772;28;20024;-57
2024/03/21 04:19:06;;;;;;;22.85;12.30;;;;;;;;;;5083183;28;20020;-58
2024/03/21 04:21:32;;;;;;;20.55;12.05;;;;;;;;;;5083399;28;20048;-58
2024/03/21 04:23:58;;;;;;;23.08;12.38;;;;;;;;;;5091257;28;20024;-58
2024/03/21 04:26:24;;;;;;;24.35;12.75;;;;;;;;;;5091980;28;20480;-55
2024/03/21 04:28:50;;;;;;;26.48;12.98;;;;;;;;;;5093683;28;20028;-52
2024/03/21 04:31:16;;;;;;;23.83;12.90;;;;;;;;;;5093726;28;20467;-54
2024/03/21 04:33:42;;;;;;;21.92;12.75;;;;;;;;;;5093519;28;20035;-52
2024/03/21 04:36:08;;;;;;;19.13;11.70;;;;;;;;;;5093288;28;20020;-53
2024/03/21 04:38:34;;;;;;;23.35;12.65;;;;;;;;;;5085700;28;20020;-53
2024/03/21 04:41:00;;;;;;;26.42;13.90;;;;;;;;;;5093021;28;20024;-50
2024/03/21 04:43:26;;;;;;;23.05;12.48;;;;;;;;;;5093205;28;20027;-50
2024/03/21 04:45:52;;;;;;;24.75;13.18;;;;;;;;;;5093392;28;20032;-53
2024/03/21 04:48:18;;;;;;;24.23;12.55;;;;;;;;;;5093445;28;20042;-54
2024/03/21 04:50:44;;;;;;;26.08;13.70;;;;;;;;;;5093266;28;20031;-55
2024/03/21 04:53:10;;;;;;;21.85;12.35;;;;;;;;;;5093686;28;20028;-54
2024/03/21 04:55:37;;;;;;;28.88;13.68;;;;;;;;;;5093189;28;20051;-53
2024/03/21 04:58:03;;;;;;;25.83;13.18;;;;;;;;;;5093017;28;20519;-52
2024/03/21 05:00:29;;;;;;;26.25;13.50;;;;;;;;;;5093150;28;20031;-51
2024/03/21 05:02:55;;;;;;;26.75;13.80;;;;;;;;;;5074102;28;22068;-54
2024/03/21 05:05:21;;;;;;;23.92;13.30;;;;;;;;;;5084627;28;20395;-54
2024/03/21 05:07:47;;;;;;;27.88;13.32;;;;;;;;;;5091532;28;20035;-52
2024/03/21 05:10:13;;;;;;;24.85;12.48;;;;;;;;;;5086561;28;20506;-51
2024/03/21 05:12:39;;;;;;;26.27;13.38;;;;;;;;;;5086978;28;20486;-52
2024/03/21 05:15:06;;;;;;;26.88;13.50;;;;;;;;;;5089610;28;20028;-52
2024/03/21 05:17:31;;;;;;;28.23;13.23;;;;;;;;;;5091142;28;20510;-53
2024/03/21 05:19:58;;;;;;;24.83;12.43;;;;;;;;;;5091815;28;20040;-54
2024/03/21 05:22:24;;;;;;;25.13;13.70;;;;;;;;;;5083680;28;20044;-54
2024/03/21 05:24:50;;;;;;;27.70;13.23;;;;;;;;;;5090853;28;20451;-53
2024/03/21 05:27:19;;;;;;;28.70;14.48;;;;;;;;;;5085871;28;20492;-51
2024/03/21 05:29:45;;;;;;;24.77;13.40;;;;;;;;;;5083497;28;20043;-52
2024/03/21 05:32:11;;;;;;;30.45;14.05;;;;;;;;;;5083363;28;20425;-52
2024/03/21 05:34:37;;;;;;;27.05;13.23;;;;;;;;;;5090869;28;20415;-51
2024/03/21 05:37:03;;;;;;;29.45;13.10;;;;;;;;;;5082300;28;20118;-55
2024/03/21 05:39:29;;;;;;;29.98;12.32;;;;;;;;;;5089076;28;20046;-53
2024/03/21 05:41:55;;;;;;;25.75;13.23;;;;;;;;;;5090398;28;20028;-52
2024/03/21 05:44:21;;;;;;;28.20;14.18;;;;;;;;;;5088511;28;20120;-53
2024/03/21 05:46:48;;;;;;;30.98;14.70;;;;;;;;;;5091286;28;20020;-51
2024/03/21 05:49:15;;;;;;;23.15;13.85;;;;;;;;;;5091528;28;20020;-52
2024/03/21 05:51:41;;;;;;;26.42;14.02;;;;;;;;;;5089551;28;20487;-54
2024/03/21 05:54:09;;;;;;;27.95;14.38;;;;;;;;;;5088754;28;20032;-53
2024/03/21 05:56:35;;;;;;;31.23;14.18;;;;;;;;;;5091414;28;20031;-52
2024/03/21 05:59:01;;;;;;;27.40;12.75;;;;;;;;;;5087990;28;20546;-52
2024/03/21 06:01:33;;;;;;;28.80;14.25;;;;;;;;;;5082061;28;20029;-52
2024/03/21 06:04:00;;;;;;;28.52;14.32;;;;;;;;;;5085249;28;20031;-52
2024/03/21 06:06:26;;;;;;;23.70;12.38;;;;;;;;;;5088429;28;20031;-54
2024/03/21 06:08:52;;;;;;;26.15;14.70;;;;;;;;;;5087813;28;20039;-55
2024/03/21 06:11:18;;;;;;;30.30;14.40;;;;;;;;;;5090249;28;20032;-50
2024/03/21 06:13:44;;;;;;;30.45;13.48;;;;;;;;;;5089169;28;20482;-54
2024/03/21 06:16:10;;;;;;;33.60;14.80;;;;;;;;;;5091455;28;20012;-52
2024/03/21 06:18:36;;;;;;;29.60;14.65;;;;;;;;;;5090094;28;20040;-54
2024/03/21 06:21:02;;;;;;;29.67;15.27;;;;;;;;;;5078156;28;20061;-53
2024/03/21 06:23:28;;;;;;;32.28;15.73;;;;;;;;;;5082970;28;20036;-52
2024/03/21 06:25:54;;;;;;;28.42;15.10;;;;;;;;;;5092208;28;20089;-52
2024/03/21 06:28:20;;;;;;;30.15;15.25;;;;;;;;;;5091548;28;20036;-54
2024/03/21 06:30:46;;;;;;;29.58;14.57;;;;;;;;;;5094941;28;20035;-51
2024/03/21 06:33:12;;;;;;;30.63;15.02;;;;;;;;;;5094561;28;20028;-54
2024/03/21 06:35:39;;;;;;;35.53;15.85;;;;;;;;;;5094788;28;20047;-55
2024/03/21 06:38:05;;;;;;;34.28;16.38;;;;;;;;;;5090137;28;20028;-51
2024/03/21 06:40:33;;;;;;;29.83;15.13;;;;;;;;;;5093238;28;20449;-52
2024/03/21 06:42:59;;;;;;;32.92;15.63;;;;;;;;;;5084873;28;20043;-54
2024/03/21 06:45:25;;;;;;;36.80;15.88;;;;;;;;;;5078690;28;20031;-54
2024/03/21 06:47:50;;;;;;;35.80;17.00;;;;;;;;;;5089819;28;20028;-53
2024/03/21 06:50:17;;;;;;;28.77;14.85;;;;;;;;;;5094902;28;20738;-53
2024/03/21 06:52:47;;;;;;;28.30;15.02;;;;;;;;;;5092134;28;20043;-54
2024/03/21 06:55:13;;;;;;;27.85;14.93;;;;;;;;;;5083356;28;20028;-51
2024/03/21 06:57:41;;;;;;;29.10;14.48;;;;;;;;;;5093312;28;20466;-52
2024/03/21 07:00:11;;;;;;;28.42;14.40;;;;;;;;;;5094835;28;20060;-51
2024/03/21 07:02:37;;;;;;;30.33;14.80;;;;;;;;;;5092564;28;20080;-50
2024/03/21 07:05:03;;;;;;;26.23;13.73;;;;;;;;;;5094780;28;20028;-52
2024/03/21 07:07:29;;;;;;;31.92;14.68;;;;;;;;;;5094015;28;20102;-54
2024/03/21 07:09:55;;;;;;;24.65;14.07;;;;;;;;;;5094387;28;20480;-54
2024/03/21 07:12:21;;;;;;;29.38;14.93;;;;;;;;;;5089306;28;20459;-53
2024/03/21 07:14:48;;;;;;;29.73;14.98;;;;;;;;;;5092811;28;20377;-54
2024/03/21 07:17:14;;;;;;;29.45;16.20;;;;;;;;;;5093815;28;20029;-55
2024/03/21 07:19:40;;;;;;;29.60;14.05;;;;;;;;;;5087767;28;20400;-53
2024/03/21 07:22:06;;;;;;;28.75;14.40;;;;;;;;;;5091084;28;20040;-53
2024/03/21 07:24:32;;;;;;;31.50;15.50;;;;;;;;;;5091545;28;20394;-53
2024/03/21 07:26:59;;;;;;;31.98;15.05;;;;;;;;;;5094390;28;20031;-56
2024/03/21 07:29:25;;;;;;;32.33;15.63;;;;;;;;;;5094116;28;20085;-54
2024/03/21 07:31:51;;;;;;;31.08;14.48;;;;;;;;;;5093818;28;20024;-54
2024/03/21 07:34:17;;;;;;;32.22;15.85;;;;;;;;;;5093356;28;20129;-52
2024/03/21 07:36:42;;;;;;;33.15;17.20;;;;;;;;;;5092772;28;20103;-52
2024/03/21 07:39:10;;;;;;;33.20;16.45;;;;;;;;;;5094100;28;20025;-53
2024/03/21 07:41:36;;;;;;;29.48;16.48;;;;;;;;;;5091452;28;20028;-55
2024/03/21 07:44:02;;;;;;;36.95;16.95;;;;;;;;;;5093447;28;20031;-54
2024/03/21 07:46:29;;;;;;;32.25;16.52;;;;;;;;;;5093408;28;20032;-54
2024/03/21 07:48:55;;;;;;;33.15;17.27;;;;;;;;;;5094167;28;20032;-53
2024/03/21 07:51:21;;;;;;;37.33;17.45;;;;;;;;;;5093793;28;20032;-54
2024/03/21 07:53:47;;;;;;;35.35;17.65;;;;;;;;;;5093313;28;20036;-52
2024/03/21 07:56:13;;;;;;;37.33;18.33;;;;;;;;;;5093705;28;20020;-52
2024/03/21 07:58:39;;;;;;;39.67;17.88;;;;;;;;;;5085619;28;20072;-56
2024/03/21 08:01:05;;;;;;;36.28;17.33;;;;;;;;;;5091133;28;20028;-57
2024/03/21 08:03:31;;;;;;;36.60;17.58;;;;;;;;;;5093240;28;20028;-55
2024/03/21 08:05:57;;;;;;;35.47;17.45;;;;;;;;;;5093499;28;20050;-55
2024/03/21 08:08:23;;;;;;;30.63;17.10;;;;;;;;;;5092814;28;20123;-56
2024/03/21 08:10:49;;;;;;;33.05;15.90;;;;;;;;;;5092893;28;20032;-56
2024/03/21 08:13:15;;;;;;;29.60;16.42;;;;;;;;;;5091506;28;20020;-56
2024/03/21 08:15:41;;;;;;;34.97;17.00;;;;;;;;;;5093065;28;20028;-56
2024/03/21 08:18:07;;;;;;;39.17;18.30;;;;;;;;;;5091859;28;20035;-56
2024/03/21 08:20:33;;;;;;;35.67;18.80;;;;;;;;;;5092597;28;20134;-56
2024/03/21 08:22:59;;;;;;;35.80;16.48;;;;;;;;;;5087656;28;20028;-56
2024/03/21 08:25:25;;;;;;;35.05;17.23;;;;;;;;;;5098631;28;20107;-56
2024/03/21 08:27:50;;;;;;;32.50;16.50;;;;;;;;;;5081118;28;20024;-55
2024/03/21 08:30:16;;;;;;;31.08;16.55;;;;;;;;;;5092338;28;20028;-56
2024/03/21 08:32:42;;;;;;;38.08;17.23;;;;;;;;;;5092582;28;20028;-56
2024/03/21 08:35:08;;;;;;;34.00;17.45;;;;;;;;;;5091350;28;20392;-56
2024/03/21 08:37:34;;;;;;;31.30;16.48;;;;;;;;;;5092885;28;20057;-55
2024/03/21 08:40:00;;;;;;;33.33;18.20;;;;;;;;;;5087654;28;20483;-56
2024/03/21 08:42:26;;;;;;;35.30;17.23;;;;;;;;;;5090196;28;20027;-56
2024/03/21 08:44:55;;;;;;;34.00;17.67;;;;;;;;;;5091123;28;20103;-56
2024/03/21 08:47:22;;;;;;;33.55;15.75;;;;;;;;;;5092712;28;20052;-56
2024/03/21 08:49:48;;;;;;;33.47;17.73;;;;;;;;;;5091641;28;20036;-56
2024/03/21 08:52:14;;;;;;;35.72;18.38;;;;;;;;;;5092152;28;20047;-56
2024/03/21 08:54:40;;;;;;;36.50;17.95;;;;;;;;;;5091935;28;20032;-55
2024/03/21 08:57:06;;;;;;;37.05;18.67;;;;;;;;;;5090814;28;20043;-56
2024/03/21 08:59:32;;;;;;;37.75;17.52;;;;;;;;;;5092004;28;20031;-56
2024/03/21 09:02:00;;;;;;;42.60;19.30;;;;;;;;;;5092338;28;20027;-56
2024/03/21 09:04:26;;;;;;;34.47;18.27;;;;;;;;;;5091961;28;20563;-56
2024/03/21 09:06:52;;;;;;;32.38;16.88;;;;;;;;;;5090317;28;20077;-56
2024/03/21 09:09:18;;;;;;;33.85;18.02;;;;;;;;;;5091429;28;20088;-55
2024/03/21 09:11:44;;;;;;;35.05;18.15;;;;;;;;;;5089501;28;20391;-53
2024/03/21 09:14:10;;;;;;;38.15;19.58;;;;;;;;;;5091715;28;20024;-55
2024/03/21 09:16:36;;;;;;;37.05;18.98;;;;;;;;;;5092353;28;20024;-52
2024/03/21 09:19:02;;;;;;;34.70;18.73;;;;;;;;;;5092060;28;20032;-53
2024/03/21 09:21:28;;;;;;;35.28;18.27;;;;;;;;;;5091049;28;20120;-54
2024/03/21 09:23:54;;;;;;;40.17;19.52;;;;;;;;;;5089170;28;20024;-56
2024/03/21 09:26:21;;;;;;;39.30;20.23;;;;;;;;;;5100278;28;20020;-54
2024/03/21 09:28:47;;;;;;;41.20;20.88;;;;;;;;;;5091307;28;20483;-52
2024/03/21 09:31:13;;;;;;;41.15;20.52;;;;;;;;;;5090762;28;20779;-53
2024/03/21 09:33:39;;;;;;;39.22;19.48;;;;;;;;;;5090609;28;20024;-54
2024/03/21 09:36:09;;;;;;;33.80;18.83;;;;;;;;;;5091035;28;20046;-54
2024/03/21 09:38:35;;;;;;;36.47;19.35;;;;;;;;;;5091050;28;20119;-53
2024/03/21 09:41:01;;;;;;;39.75;19.90;;;;;;;;;;5089729;28;20059;-53
2024/03/21 09:43:28;;;;;;;33.03;18.35;;;;;;;;;;5084605;28;20046;-54
2024/03/21 09:45:54;;;;;;;42.85;20.20;;;;;;;;;;5080886;28;20586;-53
2024/03/21 09:48:21;;;;;;;36.75;18.10;;;;;;;;;;5082615;28;20488;-54
2024/03/21 09:50:47;;;;;;;38.60;19.23;;;;;;;;;;5090830;28;20059;-53
2024/03/21 09:53:16;;;;;;;30.58;16.75;;;;;;;;;;5090173;28;20069;-54
2024/03/21 09:55:42;;;;;;;28.95;15.93;;;;;;;;;;5089908;28;20093;-54
2024/03/21 09:58:15;;;;;;;27.10;16.40;;;;;;;;;;5087782;28;20028;-52
2024/03/21 10:00:44;;;;;;;25.48;14.02;;;;;;;;;;5089931;28;20039;-53
2024/03/21 10:03:14;;;;;;;20.70;13.18;;;;;;;;;;5090300;28;20028;-53
2024/03/21 10:05:46;;;;;;;18.88;11.65;;;;;;;;;;5090619;28;20425;-55
2024/03/21 10:08:12;;;;;;;19.77;11.25;;;;;;;;;;5077369;28;20483;-52
2024/03/21 10:10:38;;;;;;;17.20;10.95;;;;;;;;;;5089772;28;20036;-53
2024/03/21 10:13:04;;;;;;;14.40;9.30;;;;;;;;;;5090207;28;20506;-55
2024/03/21 10:15:32;;;;;;;14.00;8.30;;;;;;;;;;5089194;28;20020;-55
2024/03/21 10:17:59;;;;;;;11.10;6.32;;;;;;;;;;5090451;28;20391;-54
2024/03/21 10:20:25;;;;;;;9.33;5.83;;;;;;;;;;5053873;28;1031798;-56
2024/03/21 10:22:53;;;;;;;10.40;4.88;;;;;;;;;;5091163;28;20059;-54
2024/03/21 10:25:19;;;;;;;6.57;4.03;;;;;;;;;;5094390;28;20469;-56
2024/03/21 10:27:46;;;;;;;6.95;4.82;;;;;;;;;;5077854;28;20073;-56
2024/03/21 10:30:16;;;;;;;5.70;3.65;;;;;;;;;;5089759;28;20082;-54
2024/03/21 10:32:43;;;;;;;6.13;4.03;;;;;;;;;;5090742;28;20036;-55
2024/03/21 10:35:12;;;;;;;6.25;4.72;;;;;;;;;;5090706;28;20024;-56
2024/03/21 10:37:38;;;;;;;5.90;4.10;;;;;;;;;;5090903;28;20067;-55
2024/03/21 10:40:06;;;;;;;5.70;4.05;;;;;;;;;;5088588;28;20052;-53
2024/03/21 10:42:33;;;;;;;6.75;4.05;;;;;;;;;;5090716;28;20030;-54
2024/03/21 10:45:04;;;;;;;5.50;3.97;;;;;;;;;;5084429;28;20028;-55
2024/03/21 10:47:30;;;;;;;4.90;3.53;;;;;;;;;;5090318;28;20402;-57
2024/03/21 10:49:56;;;;;;;3.58;2.50;;;;;;;;;;5091034;28;20589;-56
2024/03/21 10:52:22;;;;;;;3.80;2.20;;;;;;;;;;5090658;28;20476;-55
2024/03/21 10:54:52;;;;;;;4.35;2.28;;;;;;;;;;5090954;28;20021;-56
2024/03/21 10:57:19;;;;;;;3.08;2.20;;;;;;;;;;5080884;28;20035;-57
2024/03/21 10:59:56;;;;;;;3.50;1.83;;;;;;;;;;5090832;28;20081;-56
2024/03/21 11:02:22;;;;;;;3.92;1.80;;;;;;;;;;5089211;28;20032;-54
2024/03/21 11:04:48;;;;;;;5.15;2.55;;;;;;;;;;5090898;28;20035;-53
2024/03/21 11:07:17;;;;;;;2.13;1.23;;;;;;;;;;5089358;28;20503;-53
2024/03/21 11:09:43;;;;;;;3.72;1.85;;;;;;;;;;5091052;28;20424;-53
2024/03/21 11:12:11;;;;;;;3.08;1.98;;;;;;;;;;5089241;28;20055;-55
2024/03/21 11:14:37;;;;;;;3.08;1.85;;;;;;;;;;5094560;28;20026;-58
2024/03/21 11:17:04;;;;;;;3.22;2.17;;;;;;;;;;5094518;28;20020;-56
2024/03/21 11:19:30;;;;;;;3.88;1.85;;;;;;;;;;5094207;28;20059;-54
2024/03/21 11:21:56;;;;;;;3.95;1.98;;;;;;;;;;5090475;28;20056;-57
2024/03/21 11:24:22;;;;;;;3.70;1.80;;;;;;;;;;5097178;28;20369;-56
2024/03/21 11:26:49;;;;;;;3.72;1.90;;;;;;;;;;5100497;28;20619;-57
2024/03/21 11:29:15;;;;;;;3.88;1.58;;;;;;;;;;5094154;28;20036;-60
2024/03/21 11:31:42;;;;;;;2.75;1.90;;;;;;;;;;5094102;28;20134;-59
2024/03/21 11:34:08;;;;;;;2.83;1.88;;;;;;;;;;5093389;28;20156;-60
2024/03/21 11:36:35;;;;;;;3.35;1.92;;;;;;;;;;5093933;28;20475;-60
2024/03/21 11:39:01;;;;;;;4.05;2.03;;;;;;;;;;5092478;28;20433;-57
2024/03/21 11:41:27;;;;;;;3.53;1.92;;;;;;;;;;5092552;28;20113;-58
2024/03/21 11:43:54;;;;;;;2.58;1.48;;;;;;;;;;5091460;28;20028;-59
2024/03/21 11:46:21;;;;;;;3.05;1.33;;;;;;;;;;5092891;28;20099;-59
2024/03/21 11:49:00;;;;;;;3.78;1.65;;;;;;;;;;5093921;28;20028;-59
2024/03/21 11:51:26;;;;;;;4.22;1.40;;;;;;;;;;5093824;28;20024;-59
2024/03/21 11:53:52;;;;;;;1.63;1.20;;;;;;;;;;5093411;28;20105;-59
2024/03/21 11:56:18;;;;;;;2.55;1.38;;;;;;;;;;5088858;28;20028;-57
2024/03/21 11:58:44;;;;;;;3.25;1.83;;;;;;;;;;5092030;28;20020;-58
2024/03/21 12:01:10;;;;;;;2.30;1.40;;;;;;;;;;5096721;28;20420;-60
2024/03/21 12:03:36;;;;;;;3.13;1.60;;;;;;;;;;5091140;28;20032;-59
2024/03/21 12:06:02;;;;;;;2.70;1.70;;;;;;;;;;5093501;28;20043;-59
2024/03/21 12:08:28;;;;;;;2.55;1.55;;;;;;;;;;5093510;28;20199;-60
2024/03/21 12:10:54;;;;;;;3.60;2.03;;;;;;;;;;5085961;28;20150;-60
2024/03/21 12:13:21;;;;;;;4.18;2.38;;;;;;;;;;5092660;28;20094;-59
2024/03/21 12:15:47;;;;;;;5.43;2.63;;;;;;;;;;5093568;28;20021;-59
2024/03/21 12:18:13;;;;;;;3.22;2.40;;;;;;;;;;5093122;28;20031;-59
2024/03/21 12:20:39;;;;;;;4.65;2.90;;;;;;;;;;5093160;28;20061;-59
2024/03/21 12:23:05;;;;;;;3.97;2.88;;;;;;;;;;5092086;28;20028;-60
2024/03/21 12:25:31;;;;;;;5.45;2.45;;;;;;;;;;5092589;28;20422;-59
2024/03/21 12:27:59;;;;;;;6.00;3.10;;;;;;;;;;5089379;28;20032;-58
2024/03/21 12:30:25;;;;;;;5.28;2.53;;;;;;;;;;5091514;28;20038;-58
2024/03/21 12:32:51;;;;;;;5.57;2.67;;;;;;;;;;5088234;28;20106;-58
2024/03/21 12:35:17;;;;;;;4.28;2.65;;;;;;;;;;5079801;28;20039;-58
2024/03/21 12:37:46;;;;;;;4.53;2.85;;;;;;;;;;5093130;28;20027;-53
2024/03/21 12:40:13;;;;;;;4.43;2.80;;;;;;;;;;5092559;28;20028;-52
2024/03/21 12:42:38;;;;;;;4.45;2.38;;;;;;;;;;5085400;28;20025;-53
2024/03/21 12:45:05;;;;;;;5.75;2.83;;;;;;;;;;5090674;28;21089;-54
2024/03/21 12:47:34;;;;;;;6.40;2.85;;;;;;;;;;5093028;28;20032;-53
2024/03/21 12:50:00;;;;;;;7.10;2.75;;;;;;;;;;5092591;28;20528;-53
2024/03/21 12:52:29;;;;;;;5.15;3.28;;;;;;;;;;5091612;28;20103;-54
2024/03/21 12:54:54;;;;;;;5.18;2.90;;;;;;;;;;5092248;28;20028;-53
2024/03/21 12:57:20;;;;;;;5.93;3.20;;;;;;;;;;5088666;28;20031;-52
2024/03/21 12:59:46;;;;;;;8.10;3.97;;;;;;;;;;5091442;28;20028;-54
2024/03/21 13:02:14;;;;;;;7.25;4.13;;;;;;;;;;5090663;28;20032;-50
2024/03/21 13:04:40;;;;;;;8.10;4.45;;;;;;;;;;5092336;28;20073;-50
2024/03/21 13:07:06;;;;;;;7.60;4.20;;;;;;;;;;5092296;28;20027;-52
2024/03/21 13:09:34;;;;;;;7.57;4.65;;;;;;;;;;5092415;28;20391;-52
2024/03/21 13:12:00;;;;;;;7.35;4.72;;;;;;;;;;5092392;28;20030;-54
2024/03/21 13:14:26;;;;;;;9.10;4.57;;;;;;;;;;5088228;28;20032;-51
2024/03/21 13:16:52;;;;;;;5.97;4.13;;;;;;;;;;5089366;28;20032;-52
2024/03/21 13:19:18;;;;;;;7.35;4.20;;;;;;;;;;5083957;28;20027;-51
2024/03/21 13:21:44;;;;;;;6.60;3.95;;;;;;;;;;5091898;28;20075;-53
2024/03/21 13:24:10;;;;;;;8.13;4.97;;;;;;;;;;5091802;28;20028;-50
2024/03/21 13:26:36;;;;;;;6.13;3.90;;;;;;;;;;5092360;28;20085;-53
2024/03/21 13:29:02;;;;;;;8.63;4.38;;;;;;;;;;5082676;28;20032;-53
2024/03/21 13:31:28;;;;;;;7.25;4.45;;;;;;;;;;5091982;28;20107;-53
2024/03/21 13:33:54;;;;;;;7.65;4.80;;;;;;;;;;5089938;28;20027;-55
2024/03/21 13:36:20;;;;;;;7.80;4.38;;;;;;;;;;5090631;28;20396;-54
2024/03/21 13:38:55;;;;;;;9.10;4.65;;;;;;;;;;5091798;28;20093;-54
2024/03/21 13:41:21;;;;;;;9.15;5.45;;;;;;;;;;5078968;28;20024;-54
2024/03/21 13:43:47;;;;;;;9.95;5.00;;;;;;;;;;5087034;28;20024;-53
2024/03/21 13:46:13;;;;;;;9.32;5.03;;;;;;;;;;5089190;28;20030;-51
2024/03/21 13:48:39;;;;;;;11.48;4.75;;;;;;;;;;5092063;28;20103;-58
2024/03/21 13:51:04;;;;;;;8.90;4.78;;;;;;;;;;5091631;28;20020;-59
2024/03/21 13:53:30;;;;;;;8.52;5.03;;;;;;;;;;5091280;28;20031;-58
2024/03/21 13:55:57;;;;;;;9.05;5.18;;;;;;;;;;5091339;28;20103;-57
2024/03/21 13:58:23;;;;;;;7.65;4.80;;;;;;;;;;5090718;28;20032;-58
2024/03/21 14:00:49;;;;;;;11.00;5.05;;;;;;;;;;5092992;28;20080;-57
2024/03/21 14:03:15;;;;;;;7.32;4.82;;;;;;;;;;5088654;28;20497;-59
2024/03/21 14:05:41;;;;;;;6.82;4.50;;;;;;;;;;5091676;28;20020;-57
2024/03/21 14:08:07;;;;;;;9.63;4.68;;;;;;;;;;5082844;28;20081;-57
2024/03/21 14:10:33;;;;;;;8.82;5.03;;;;;;;;;;5091353;28;20383;-57
2024/03/21 14:12:59;;;;;;;10.43;5.32;;;;;;;;;;5090699;28;20028;-57
2024/03/21 14:15:25;;;;;;;8.80;4.68;;;;;;;;;;5090642;28;20438;-57
2024/03/21 14:17:51;;;;;;;8.73;4.88;;;;;;;;;;5091088;28;20043;-57
2024/03/21 14:20:17;;;;;;;10.00;4.22;;;;;;;;;;5090696;28;20032;-57
2024/03/21 14:22:43;;;;;;;8.80;5.05;;;;;;;;;;5089696;28;20043;-56
2024/03/21 14:25:09;;;;;;;8.43;5.57;;;;;;;;;;5091316;28;20031;-57
2024/03/21 14:27:35;;;;;;;8.43;5.10;;;;;;;;;;5089717;28;20384;-58